Accueil
METAR-TAF:

METAR-TAF

Aéroports :

Longyearbyen, Norvège

Aéroport de Longyearbyen

latitude: 78-15N, longitude: 015-28E, altitude: 2 m

Observation

Le bulletin a été fait il y a 27 minutes, à 12:20 UTC
Vent 10 kt de sud-est
Température -1°C
Humidité 64%
Pression 1019 hPa
Visibilité 10 km ou plus
Quelques nuages à une hauteur de 4000 ft
Nuages fragmentés à une hauteur de 6000 ft

METAR: ENSB 181220Z 13010KT 9999 FEW040 BKN060 M01/M07 Q1019 RMK WIND 1400FT 13010KT

Heure: 14:47 (12:47 UTC)

Prévision

Prévision valable du 18 à 06 UTC au 19 à 06 UTC
Vent 12 kt de est/sud-est
Visibilité 10 km ou plus
Quelques nuages à une hauteur de 2000 ft
Nuages fragmentés à une hauteur de 4000 ft

TAF: ENSB 1806/1906 12012KT 9999 FEW020 BKN040

Observations et prévisions météorologiques de plus de 4000 aéroports (messages METAR et TAF).

Les stations disponibles sont représentées par des disques jaunes et rouges sur la carte.

Passer la souris dessus pour voir le nom de la station.

Cliquer dessus pour voir les observations et prévisions météorologiques.

Pour changer de carte: cliquez sur les boutons verts avec une croix noire pour zoomer, sur le bouton vert avec un tiret pour effectuer un zoom arrière, ou sur les flèches vertes pour les cartes adjacentes.


METAR-TAF: